createdAt,value
2019-01-15T00:00:32.962Z,1003.97
2019-01-15T00:01:32.934Z,1003.97
2019-01-15T00:02:32.929Z,1003.98
2019-01-15T00:03:32.921Z,1003.93
2019-01-15T00:04:32.919Z,1004.04
2019-01-15T00:05:32.916Z,1004.02
2019-01-15T00:06:32.895Z,1004.08
2019-01-15T00:07:32.897Z,1004.02
2019-01-15T00:08:32.899Z,1004.14
2019-01-15T00:09:32.874Z,1004.03
2019-01-15T00:10:32.861Z,1004.01
2019-01-15T00:11:32.889Z,1004.05
2019-01-15T00:12:32.855Z,1004.07
2019-01-15T00:13:32.845Z,1004.06
2019-01-15T00:14:32.834Z,1004.03
2019-01-15T00:15:32.817Z,1004.01
2019-01-15T00:16:32.807Z,1004.10
2019-01-15T00:17:32.784Z,1004.02
2019-01-15T00:18:32.773Z,1004.08
2019-01-15T00:19:32.759Z,1004.09
2019-01-15T00:20:32.745Z,1004.09
2019-01-15T00:21:32.729Z,1004.11
2019-01-15T00:22:32.748Z,1004.11
2019-01-15T00:23:32.712Z,1004.04
2019-01-15T00:24:32.711Z,1003.99
2019-01-15T00:25:32.705Z,1003.96
2019-01-15T00:26:32.684Z,1003.92
2019-01-15T00:27:32.672Z,1004.01
2019-01-15T00:28:32.656Z,1004.05
2019-01-15T00:29:32.644Z,1004.05
2019-01-15T00:30:32.633Z,1004.11
2019-01-15T00:31:32.618Z,1004.15
2019-01-15T00:32:32.624Z,1004.09
2019-01-15T00:33:32.626Z,1004.16
2019-01-15T00:34:32.595Z,1004.08
2019-01-15T00:35:32.580Z,1004.09
2019-01-15T00:36:32.567Z,1004.12
2019-01-15T00:37:32.589Z,1004.16
2019-01-15T00:38:32.575Z,1004.11
2019-01-15T00:39:32.547Z,1004.14
2019-01-15T00:40:32.541Z,1004.24
2019-01-15T00:41:32.515Z,1004.16
2019-01-15T00:42:32.511Z,1004.09
2019-01-15T00:43:32.500Z,1004.10
2019-01-15T00:44:32.514Z,1003.91
2019-01-15T00:45:32.518Z,1004.05
2019-01-15T00:46:32.497Z,1004.12
2019-01-15T00:47:32.544Z,1004.03
2019-01-15T00:48:32.456Z,1004.15
2019-01-15T00:49:32.450Z,1004.08
2019-01-15T00:50:32.452Z,1004.19
2019-01-15T00:51:32.429Z,1004.27
2019-01-15T00:52:32.428Z,1004.18
2019-01-15T00:53:32.424Z,1004.18
2019-01-15T00:54:32.398Z,1004.16
2019-01-15T00:55:32.390Z,1004.12
2019-01-15T00:56:32.394Z,1004.08
2019-01-15T00:57:32.394Z,1004.09
2019-01-15T00:58:32.374Z,1004.17
2019-01-15T00:59:32.346Z,1004.21
2019-01-15T01:00:32.321Z,1004.22
2019-01-15T01:01:32.324Z,1004.25
2019-01-15T01:02:32.314Z,1004.24
2019-01-15T01:03:32.297Z,1004.20
2019-01-15T01:04:32.283Z,1004.18
2019-01-15T01:05:32.272Z,1004.21
2019-01-15T01:06:32.272Z,1004.28
2019-01-15T01:07:32.256Z,1004.25
2019-01-15T01:08:32.243Z,1004.16
2019-01-15T01:09:32.222Z,1003.98
2019-01-15T01:10:32.221Z,1004.20
2019-01-15T01:11:32.212Z,1004.19
2019-01-15T01:12:32.194Z,1004.19
2019-01-15T01:13:32.205Z,1004.26
2019-01-15T01:14:32.178Z,1004.20
2019-01-15T01:15:32.169Z,1004.32
2019-01-15T01:16:32.149Z,1004.33
2019-01-15T01:17:32.144Z,1004.39
2019-01-15T01:18:32.139Z,1004.36
2019-01-15T01:19:32.128Z,1004.34
2019-01-15T01:20:32.117Z,1004.38
2019-01-15T01:21:32.109Z,1004.42
2019-01-15T01:22:32.102Z,1004.45
2019-01-15T01:23:32.093Z,1004.42
2019-01-15T01:24:32.072Z,1004.45
2019-01-15T01:25:32.073Z,1004.46
2019-01-15T01:26:32.042Z,1004.41
2019-01-15T01:27:32.044Z,1004.50
2019-01-15T01:28:32.045Z,1004.45
2019-01-15T01:29:32.018Z,1004.42
2019-01-15T01:30:32.011Z,1004.52
2019-01-15T01:31:32.000Z,1004.47
2019-01-15T01:32:32.007Z,1004.55
2019-01-15T01:33:31.980Z,1004.57
2019-01-15T01:34:31.964Z,1004.54
2019-01-15T01:35:31.959Z,1004.56
2019-01-15T01:36:31.942Z,1004.53
2019-01-15T01:37:31.941Z,1004.56
2019-01-15T01:38:31.930Z,1004.58
2019-01-15T01:39:31.914Z,1004.53
2019-01-15T01:40:31.906Z,1004.50
2019-01-15T01:41:31.897Z,1004.50
2019-01-15T01:42:31.878Z,1004.51
2019-01-15T01:43:31.869Z,1004.59
2019-01-15T01:44:31.856Z,1004.65
2019-01-15T01:45:31.854Z,1004.59
2019-01-15T01:46:31.858Z,1004.71
2019-01-15T01:47:31.828Z,1004.72
2019-01-15T01:48:31.826Z,1004.65
2019-01-15T01:49:31.803Z,1004.78
2019-01-15T01:50:31.791Z,1004.75
2019-01-15T01:51:31.787Z,1004.66
2019-01-15T01:52:31.774Z,1004.75
2019-01-15T01:53:31.774Z,1004.65
2019-01-15T01:54:31.754Z,1004.72
2019-01-15T01:55:31.744Z,1004.73
2019-01-15T01:56:31.728Z,1004.83
2019-01-15T01:57:31.723Z,1004.78
2019-01-15T01:58:31.718Z,1004.82
2019-01-15T01:59:31.794Z,1004.75
2019-01-15T02:00:31.700Z,1004.79
2019-01-15T02:01:31.682Z,1004.82
2019-01-15T02:02:31.671Z,1004.78
2019-01-15T02:03:31.656Z,1004.94
2019-01-15T02:04:31.653Z,1004.89
2019-01-15T02:05:31.636Z,1004.92
2019-01-15T02:06:31.658Z,1004.91
2019-01-15T02:07:31.648Z,1004.84
2019-01-15T02:08:31.605Z,1004.91
2019-01-15T02:09:31.621Z,1004.92
2019-01-15T02:10:31.595Z,1004.94
2019-01-15T02:11:31.582Z,1004.96
2019-01-15T02:12:36.864Z,1004.99
2019-01-15T02:13:32.573Z,1004.95
2019-01-15T02:14:31.550Z,1004.85
2019-01-15T02:15:31.537Z,1004.94
2019-01-15T02:16:31.527Z,1004.98
2019-01-15T02:17:31.518Z,1004.98
2019-01-15T02:18:31.504Z,1004.97
2019-01-15T02:19:31.486Z,1004.99
2019-01-15T02:20:31.491Z,1004.88
2019-01-15T02:21:31.469Z,1004.96
2019-01-15T02:22:31.471Z,1004.90
2019-01-15T02:23:31.455Z,1004.83
2019-01-15T02:24:31.454Z,1004.91
2019-01-15T02:25:31.432Z,1004.92
2019-01-15T02:26:31.471Z,1004.98
2019-01-15T02:27:31.411Z,1004.93
2019-01-15T02:28:31.410Z,1004.94
2019-01-15T02:29:31.393Z,1004.92
2019-01-15T02:30:31.385Z,1004.96
2019-01-15T02:31:31.372Z,1005.01
2019-01-15T02:32:31.375Z,1004.94
2019-01-15T02:33:31.349Z,1004.97
2019-01-15T02:34:31.333Z,1005.00
2019-01-15T02:35:31.325Z,1005.07
2019-01-15T02:36:31.320Z,1005.11
2019-01-15T02:37:31.304Z,1004.96
2019-01-15T02:38:31.308Z,1004.99
2019-01-15T02:39:31.303Z,1004.99
2019-01-15T02:40:31.277Z,1005.00
2019-01-15T02:41:31.260Z,1004.97
2019-01-15T02:42:31.268Z,1005.05
2019-01-15T02:43:31.272Z,1005.10
2019-01-15T02:44:31.268Z,1005.13
2019-01-15T02:45:31.244Z,1005.06
2019-01-15T02:46:31.224Z,1005.07
2019-01-15T02:47:31.234Z,1005.03
2019-01-15T02:48:31.225Z,1005.13
2019-01-15T02:49:31.182Z,1005.10
2019-01-15T02:50:31.172Z,1005.14
2019-01-15T02:51:31.179Z,1005.17
2019-01-15T02:52:31.184Z,1005.07
2019-01-15T02:53:31.144Z,1005.16
2019-01-15T02:54:31.128Z,1005.06
2019-01-15T02:55:31.122Z,1005.06
2019-01-15T02:56:31.126Z,1005.09
2019-01-15T02:57:31.119Z,1005.08
2019-01-15T02:58:31.105Z,1005.17
2019-01-15T02:59:31.097Z,1005.09
2019-01-15T03:00:31.072Z,1005.14
2019-01-15T03:01:31.070Z,1005.08
2019-01-15T03:02:31.069Z,1005.09
2019-01-15T03:03:31.056Z,1005.02
2019-01-15T03:04:31.036Z,1004.97
2019-01-15T03:05:31.028Z,1005.00
2019-01-15T03:06:31.023Z,1005.06
2019-01-15T03:07:31.028Z,1005.07
2019-01-15T03:08:31.017Z,1005.13
2019-01-15T03:09:30.986Z,1005.14
2019-01-15T03:10:30.996Z,1005.06
2019-01-15T03:11:30.967Z,1005.12
2019-01-15T03:12:30.968Z,1005.08
2019-01-15T03:13:30.945Z,1005.15
2019-01-15T03:14:30.931Z,1005.06
2019-01-15T03:15:30.898Z,1005.11
2019-01-15T03:16:30.888Z,1005.09
2019-01-15T03:17:30.895Z,1005.10
2019-01-15T03:18:30.878Z,1005.17
2019-01-15T03:19:30.866Z,1005.14
2019-01-15T03:20:30.856Z,1005.19
2019-01-15T03:21:30.850Z,1005.23
2019-01-15T03:22:30.825Z,1005.19
2019-01-15T03:23:30.838Z,1005.14
2019-01-15T03:24:30.823Z,1005.18
2019-01-15T03:25:30.797Z,1005.12
2019-01-15T03:26:30.817Z,1005.18
2019-01-15T03:27:30.787Z,1005.20
2019-01-15T03:28:30.787Z,1005.21
2019-01-15T03:29:30.778Z,1005.18
2019-01-15T03:30:30.739Z,1005.23
2019-01-15T03:31:30.740Z,1005.25
2019-01-15T03:32:30.729Z,1005.22
2019-01-15T03:33:30.770Z,1005.22
2019-01-15T03:34:30.717Z,1005.17
2019-01-15T03:35:30.703Z,1005.17
2019-01-15T03:36:30.695Z,1005.11
2019-01-15T03:37:30.687Z,1005.19
2019-01-15T03:38:30.699Z,1005.14
2019-01-15T03:39:30.671Z,1005.11
2019-01-15T03:40:31.313Z,1005.14
2019-01-15T03:41:30.654Z,1005.17
2019-01-15T03:42:30.648Z,1005.10
2019-01-15T03:43:30.629Z,1005.11
2019-01-15T03:44:30.632Z,1005.16
2019-01-15T03:45:30.586Z,1005.24
2019-01-15T03:46:30.588Z,1005.15
2019-01-15T03:47:30.572Z,1005.17
2019-01-15T03:48:30.557Z,1005.16
2019-01-15T03:49:30.623Z,1005.23
2019-01-15T03:50:30.553Z,1005.21
2019-01-15T03:51:30.631Z,1005.18
2019-01-15T03:52:30.528Z,1005.19
2019-01-15T03:53:30.512Z,1005.18
2019-01-15T03:54:30.504Z,1005.20
2019-01-15T03:55:30.498Z,1005.23
2019-01-15T03:56:30.481Z,1005.19
2019-01-15T03:57:30.487Z,1005.17
2019-01-15T03:58:30.456Z,1005.14
2019-01-15T03:59:30.448Z,1005.15
2019-01-15T04:00:30.475Z,1005.21
2019-01-15T04:01:30.478Z,1005.20
2019-01-15T04:02:30.417Z,1005.17
2019-01-15T04:03:30.420Z,1005.22
2019-01-15T04:04:30.404Z,1005.22
2019-01-15T04:05:30.397Z,1005.24
2019-01-15T04:06:30.377Z,1005.21
2019-01-15T04:07:30.367Z,1005.14
2019-01-15T04:08:30.356Z,1005.21
2019-01-15T04:09:30.340Z,1005.23
2019-01-15T04:10:30.358Z,1005.18
2019-01-15T04:11:30.340Z,1005.19
2019-01-15T04:12:30.314Z,1005.17
2019-01-15T04:13:30.346Z,1005.27
2019-01-15T04:14:30.300Z,1005.19
2019-01-15T04:15:30.288Z,1005.16
2019-01-15T04:16:30.273Z,1005.25
2019-01-15T04:17:30.268Z,1005.25
2019-01-15T04:18:30.250Z,1005.28
2019-01-15T04:19:30.238Z,1005.27
2019-01-15T04:20:30.240Z,1005.30
2019-01-15T04:21:30.221Z,1005.36
2019-01-15T04:22:30.240Z,1005.38
2019-01-15T04:23:30.201Z,1005.43
2019-01-15T04:24:30.212Z,1005.39
2019-01-15T04:25:30.191Z,1005.31
2019-01-15T04:26:30.169Z,1005.38
2019-01-15T04:27:30.170Z,1005.44
2019-01-15T04:28:30.146Z,1005.38
2019-01-15T04:29:30.175Z,1005.39
2019-01-15T04:30:30.125Z,1005.40
2019-01-15T04:31:30.111Z,1005.42
2019-01-15T04:32:30.101Z,1005.42
2019-01-15T04:33:30.115Z,1005.39
2019-01-15T04:34:30.095Z,1005.38
2019-01-15T04:35:30.112Z,1005.35
2019-01-15T04:36:30.148Z,1005.35
2019-01-15T04:37:30.052Z,1005.33
2019-01-15T04:38:30.078Z,1005.35
2019-01-15T04:39:30.119Z,1005.37
2019-01-15T04:40:30.055Z,1005.33
2019-01-15T04:41:30.024Z,1005.44
2019-01-15T04:42:29.999Z,1005.41
2019-01-15T04:43:30.027Z,1005.39
2019-01-15T04:44:29.987Z,1005.33
2019-01-15T04:45:29.983Z,1005.34
2019-01-15T04:46:29.985Z,1005.33
2019-01-15T04:47:29.964Z,1005.40
2019-01-15T04:48:29.930Z,1005.33
2019-01-15T04:49:29.915Z,1005.33
2019-01-15T04:50:29.909Z,1005.30
2019-01-15T04:51:29.906Z,1005.34
2019-01-15T04:52:29.919Z,1005.29
2019-01-15T04:53:29.864Z,1005.27
2019-01-15T04:54:29.863Z,1005.24
2019-01-15T04:55:29.859Z,1005.25
2019-01-15T04:56:29.854Z,1005.25
2019-01-15T04:57:29.841Z,1005.21
2019-01-15T04:58:29.832Z,1005.25
2019-01-15T04:59:29.830Z,1005.28
2019-01-15T05:00:29.813Z,1005.25
2019-01-15T05:01:29.787Z,1005.24
2019-01-15T05:02:29.787Z,1005.21
2019-01-15T05:03:29.793Z,1005.24
2019-01-15T05:04:29.758Z,1005.19
2019-01-15T05:05:29.749Z,1005.20
2019-01-15T05:06:29.753Z,1005.13
2019-01-15T05:07:29.732Z,1005.10
2019-01-15T05:08:29.727Z,1005.16
2019-01-15T05:09:29.721Z,1005.02
2019-01-15T05:10:29.698Z,1005.10
2019-01-15T05:11:29.674Z,1005.10
2019-01-15T05:12:29.683Z,1005.13
2019-01-15T05:13:29.674Z,1005.13
2019-01-15T05:14:29.674Z,1005.03
2019-01-15T05:15:29.643Z,1005.05
2019-01-15T05:16:29.628Z,1005.04
2019-01-15T05:17:29.617Z,1005.05
2019-01-15T05:18:29.620Z,1005.02
2019-01-15T05:19:29.622Z,1004.98
2019-01-15T05:20:29.596Z,1005.04
2019-01-15T05:21:29.591Z,1004.99
2019-01-15T05:22:29.588Z,1005.05
2019-01-15T05:23:29.572Z,1005.00
2019-01-15T05:24:29.568Z,1004.97
2019-01-15T05:25:29.575Z,1004.90
2019-01-15T05:26:29.536Z,1004.96
2019-01-15T05:27:29.553Z,1005.00
2019-01-15T05:28:29.512Z,1004.90
2019-01-15T05:29:29.490Z,1004.99
2019-01-15T05:30:29.491Z,1004.98
2019-01-15T05:31:29.496Z,1004.85
2019-01-15T05:32:29.479Z,1004.89
2019-01-15T05:33:29.502Z,1004.93
2019-01-15T05:34:29.483Z,1004.97
2019-01-15T05:35:29.443Z,1004.98
2019-01-15T05:36:29.471Z,1005.01
2019-01-15T05:37:29.424Z,1004.86
2019-01-15T05:38:29.427Z,1004.99
2019-01-15T05:39:29.407Z,1005.06
2019-01-15T05:40:29.388Z,1005.08
2019-01-15T05:41:29.390Z,1005.07
2019-01-15T05:42:29.371Z,1005.05
2019-01-15T05:43:35.482Z,1004.98
2019-01-15T05:44:30.347Z,1004.95
2019-01-15T05:45:29.343Z,1005.05
2019-01-15T05:46:29.379Z,1005.18
2019-01-15T05:47:29.317Z,1005.12
2019-01-15T05:48:29.370Z,1005.10
2019-01-15T05:49:29.292Z,1005.17
2019-01-15T05:50:29.299Z,1005.13
2019-01-15T05:51:29.341Z,1005.05
2019-01-15T05:52:29.276Z,1004.94
2019-01-15T05:53:29.273Z,1005.03
2019-01-15T05:54:29.292Z,1005.03
2019-01-15T05:55:29.255Z,1004.98
2019-01-15T05:56:29.222Z,1004.99
2019-01-15T05:57:29.205Z,1005.09
2019-01-15T05:58:29.213Z,1004.97
2019-01-15T05:59:29.192Z,1005.09
2019-01-15T06:00:29.174Z,1005.06
2019-01-15T06:01:29.199Z,1005.12
2019-01-15T06:02:29.142Z,1005.07
2019-01-15T06:03:29.142Z,1005.10
2019-01-15T06:04:29.132Z,1005.09
2019-01-15T06:05:29.119Z,1005.09
2019-01-15T06:06:29.124Z,1005.17
2019-01-15T06:07:33.657Z,1005.11
2019-01-15T06:08:29.080Z,1005.09
2019-01-15T06:09:29.117Z,1005.04
2019-01-15T06:10:29.083Z,1005.08
2019-01-15T06:11:29.076Z,1005.10
2019-01-15T06:12:29.550Z,1005.02
2019-01-15T06:13:29.042Z,1005.09
2019-01-15T06:14:29.023Z,1005.08
2019-01-15T06:15:28.999Z,1005.13
2019-01-15T06:16:29.041Z,1005.10
2019-01-15T06:17:28.991Z,1005.08
2019-01-15T06:18:28.976Z,1004.95
2019-01-15T06:19:28.974Z,1005.03
2019-01-15T06:20:28.958Z,1005.03
2019-01-15T06:21:28.960Z,1004.87
2019-01-15T06:22:28.935Z,1005.02
2019-01-15T06:23:28.938Z,1004.95
2019-01-15T06:24:28.934Z,1004.93
2019-01-15T06:25:28.925Z,1005.04
2019-01-15T06:26:28.902Z,1004.94
2019-01-15T06:27:28.897Z,1004.87
2019-01-15T06:28:28.891Z,1004.95
2019-01-15T06:29:28.863Z,1004.97
2019-01-15T06:30:28.866Z,1004.85
2019-01-15T06:31:28.849Z,1004.90
2019-01-15T06:32:28.836Z,1004.92
2019-01-15T06:33:28.821Z,1004.73
2019-01-15T06:34:28.808Z,1004.93
2019-01-15T06:35:28.812Z,1004.81
2019-01-15T06:36:28.798Z,1004.90
2019-01-15T06:37:28.795Z,1004.89
2019-01-15T06:38:28.775Z,1004.97
2019-01-15T06:39:28.768Z,1004.90
2019-01-15T06:40:28.753Z,1004.90
2019-01-15T06:41:28.772Z,1004.95
2019-01-15T06:42:28.735Z,1004.99
2019-01-15T06:43:28.747Z,1005.06
2019-01-15T06:44:28.714Z,1005.08
2019-01-15T06:45:28.707Z,1005.04
2019-01-15T06:46:28.692Z,1005.08
2019-01-15T06:47:28.699Z,1005.08
2019-01-15T06:48:28.677Z,1005.06
2019-01-15T06:49:28.663Z,1005.04
2019-01-15T06:50:28.644Z,1005.04
2019-01-15T06:51:28.640Z,1004.99
2019-01-15T06:52:28.641Z,1005.01
2019-01-15T06:53:28.618Z,1005.05
2019-01-15T06:54:28.676Z,1004.98
2019-01-15T06:55:28.596Z,1004.97
2019-01-15T06:56:28.579Z,1005.02
2019-01-15T06:57:28.599Z,1004.95
2019-01-15T06:58:28.563Z,1004.99
2019-01-15T06:59:28.572Z,1005.02
2019-01-15T07:00:28.563Z,1005.02
2019-01-15T07:01:28.524Z,1005.00
2019-01-15T07:02:28.540Z,1004.96
2019-01-15T07:03:28.518Z,1005.01
2019-01-15T07:04:28.511Z,1005.04
2019-01-15T07:05:28.520Z,1005.03
2019-01-15T07:06:28.482Z,1005.06
2019-01-15T07:07:28.477Z,1005.03
2019-01-15T07:08:28.474Z,1004.94
2019-01-15T07:09:28.444Z,1004.93
2019-01-15T07:10:28.447Z,1005.04
2019-01-15T07:11:28.433Z,1005.09
2019-01-15T07:12:28.447Z,1005.09
2019-01-15T07:13:28.403Z,1005.02
2019-01-15T07:14:28.406Z,1004.99
2019-01-15T07:15:28.387Z,1005.12
2019-01-15T07:16:28.378Z,1005.06
2019-01-15T07:17:28.374Z,1005.06
2019-01-15T07:18:28.377Z,1005.01
2019-01-15T07:19:28.337Z,1005.02
2019-01-15T07:20:28.336Z,1005.03
2019-01-15T07:21:28.349Z,1004.99
2019-01-15T07:22:28.362Z,1004.98
2019-01-15T07:23:28.319Z,1005.02
2019-01-15T07:24:28.336Z,1004.88
2019-01-15T07:25:28.301Z,1004.89
2019-01-15T07:26:28.306Z,1004.73
2019-01-15T07:27:28.266Z,1004.86
2019-01-15T07:28:28.270Z,1004.95
2019-01-15T07:29:28.263Z,1004.90
2019-01-15T07:30:28.266Z,1004.81
2019-01-15T07:31:28.230Z,1004.88
2019-01-15T07:32:28.216Z,1004.93
2019-01-15T07:33:28.204Z,1004.84
2019-01-15T07:34:28.194Z,1004.83
2019-01-15T07:35:28.197Z,1004.93
2019-01-15T07:36:28.224Z,1004.89
2019-01-15T07:37:28.166Z,1004.92
2019-01-15T07:38:28.142Z,1004.90
2019-01-15T07:39:28.138Z,1004.90
2019-01-15T07:40:28.293Z,1004.87
2019-01-15T07:41:28.126Z,1004.76
2019-01-15T07:42:28.097Z,1004.84
2019-01-15T07:43:28.105Z,1004.86
2019-01-15T07:44:28.089Z,1004.95
2019-01-15T07:45:28.078Z,1004.93
2019-01-15T07:46:28.062Z,1004.88
2019-01-15T07:47:28.076Z,1004.86
2019-01-15T07:48:28.142Z,1004.91
2019-01-15T07:49:28.046Z,1004.88
2019-01-15T07:50:28.024Z,1004.84
2019-01-15T07:51:28.080Z,1004.78
2019-01-15T07:52:28.008Z,1004.77
2019-01-15T07:53:28.023Z,1004.84
2019-01-15T07:54:27.981Z,1004.71
2019-01-15T07:55:28.013Z,1004.76
2019-01-15T07:56:28.096Z,1004.75
2019-01-15T07:57:27.987Z,1004.67
2019-01-15T07:58:27.973Z,1004.69
2019-01-15T07:59:28.029Z,1004.72
2019-01-15T08:00:27.922Z,1004.60
2019-01-15T08:01:27.898Z,1004.62
2019-01-15T08:02:27.901Z,1004.73
2019-01-15T08:03:28.828Z,1004.86
2019-01-15T08:04:27.876Z,1004.80
2019-01-15T08:05:27.864Z,1004.78
2019-01-15T08:06:28.476Z,1004.91
2019-01-15T08:07:27.852Z,1004.88
2019-01-15T08:08:27.842Z,1004.91
2019-01-15T08:09:27.940Z,1004.95
2019-01-15T08:10:27.838Z,1005.05
2019-01-15T08:11:27.805Z,1005.08
2019-01-15T08:12:27.793Z,1004.98
2019-01-15T08:13:27.781Z,1004.90
2019-01-15T08:14:27.783Z,1004.91
2019-01-15T08:15:27.791Z,1004.89
2019-01-15T08:16:27.821Z,1004.93
2019-01-15T08:17:27.811Z,1004.97
2019-01-15T08:18:27.732Z,1004.96
2019-01-15T08:19:27.732Z,1004.94
2019-01-15T08:20:27.719Z,1004.88
2019-01-15T08:21:27.760Z,1004.83
2019-01-15T08:22:27.721Z,1004.92
2019-01-15T08:23:27.702Z,1004.90
2019-01-15T08:24:27.686Z,1004.93
2019-01-15T08:25:27.673Z,1004.88
2019-01-15T08:26:27.697Z,1004.94
2019-01-15T08:27:27.695Z,1004.83
2019-01-15T08:28:27.650Z,1004.95
2019-01-15T08:29:27.656Z,1004.94
2019-01-15T08:30:27.633Z,1004.94
2019-01-15T08:31:27.620Z,1004.95
2019-01-15T08:32:27.630Z,1004.97
2019-01-15T08:33:27.582Z,1004.93
2019-01-15T08:34:27.577Z,1004.88
2019-01-15T08:35:27.554Z,1004.92
2019-01-15T08:36:28.643Z,1004.89
2019-01-15T08:37:27.538Z,1004.79
2019-01-15T08:38:27.563Z,1004.85
2019-01-15T08:39:27.526Z,1004.82
2019-01-15T08:40:27.496Z,1004.99
2019-01-15T08:41:27.492Z,1004.85
2019-01-15T08:42:27.485Z,1004.83
2019-01-15T08:43:27.498Z,1004.80
2019-01-15T08:44:27.458Z,1004.75
2019-01-15T08:45:27.448Z,1004.75
2019-01-15T08:46:27.432Z,1004.66
2019-01-15T08:47:27.437Z,1004.77
2019-01-15T08:48:27.477Z,1004.71
2019-01-15T08:49:27.406Z,1004.62
2019-01-15T08:50:27.402Z,1004.76
2019-01-15T08:51:27.413Z,1004.74
2019-01-15T08:52:27.371Z,1004.78
2019-01-15T08:53:27.398Z,1004.69
2019-01-15T08:54:27.368Z,1004.71
2019-01-15T08:55:27.353Z,1004.70
2019-01-15T08:56:27.373Z,1004.62
2019-01-15T08:57:27.326Z,1004.82
2019-01-15T08:58:27.309Z,1004.77
2019-01-15T08:59:27.307Z,1004.82
2019-01-15T09:00:27.315Z,1004.76
2019-01-15T09:01:27.297Z,1004.73
2019-01-15T09:02:27.286Z,1004.80
2019-01-15T09:03:27.331Z,1004.74
2019-01-15T09:04:27.253Z,1004.74
2019-01-15T09:05:27.240Z,1004.69
2019-01-15T09:06:27.240Z,1004.70
2019-01-15T09:07:27.226Z,1004.66
2019-01-15T09:08:27.209Z,1004.66
2019-01-15T09:09:27.188Z,1004.74
2019-01-15T09:10:27.185Z,1004.72
2019-01-15T09:11:27.175Z,1004.63
2019-01-15T09:12:27.207Z,1004.70
2019-01-15T09:13:27.161Z,1004.87
2019-01-15T09:14:27.243Z,1004.82
2019-01-15T09:15:27.122Z,1004.76
2019-01-15T09:16:27.210Z,1004.77
2019-01-15T09:17:27.143Z,1004.76
2019-01-15T09:18:28.814Z,1004.83
2019-01-15T09:19:27.101Z,1004.70
2019-01-15T09:20:27.091Z,1004.86
2019-01-15T09:21:27.085Z,1004.73
2019-01-15T09:22:27.075Z,1004.83
2019-01-15T09:23:27.093Z,1004.89
2019-01-15T09:24:27.051Z,1004.90
2019-01-15T09:25:27.078Z,1004.94
2019-01-15T09:26:27.022Z,1004.86
2019-01-15T09:27:27.022Z,1004.84
2019-01-15T09:28:27.151Z,1004.88
2019-01-15T09:29:27.045Z,1004.94
2019-01-15T09:30:26.994Z,1004.94
2019-01-15T09:31:26.987Z,1004.96
2019-01-15T09:32:26.971Z,1004.94
2019-01-15T09:33:26.969Z,1004.97
2019-01-15T09:34:26.965Z,1004.90
2019-01-15T09:35:26.947Z,1004.90
2019-01-15T09:36:26.950Z,1005.05
2019-01-15T09:37:27.490Z,1005.10
2019-01-15T09:38:26.933Z,1004.95
2019-01-15T09:39:26.900Z,1005.00
2019-01-15T09:40:27.082Z,1005.01
2019-01-15T09:41:26.885Z,1005.05
2019-01-15T09:42:26.866Z,1005.02
2019-01-15T09:43:26.838Z,1004.93
2019-01-15T09:44:33.830Z,1005.00
2019-01-15T09:45:27.859Z,1005.07
2019-01-15T09:46:26.855Z,1004.98
2019-01-15T09:47:26.811Z,1005.01
2019-01-15T09:48:26.783Z,1004.99
2019-01-15T09:49:26.787Z,1005.02
2019-01-15T09:50:26.762Z,1005.01
2019-01-15T09:51:26.764Z,1004.93
2019-01-15T09:52:26.806Z,1004.86
2019-01-15T09:53:26.747Z,1004.96
2019-01-15T09:54:26.742Z,1004.94
2019-01-15T09:55:26.733Z,1004.94
2019-01-15T09:56:26.756Z,1005.00
2019-01-15T09:57:26.698Z,1004.88
2019-01-15T09:58:26.683Z,1005.01
2019-01-15T09:59:26.707Z,1004.86
2019-01-15T10:00:26.661Z,1004.89
2019-01-15T10:01:26.670Z,1004.89
2019-01-15T10:02:26.710Z,1004.95
2019-01-15T10:03:26.632Z,1004.92
2019-01-15T10:04:26.642Z,1004.91
2019-01-15T10:05:26.626Z,1004.97
2019-01-15T10:06:26.609Z,1004.94
2019-01-15T10:07:26.633Z,1004.95
2019-01-15T10:08:26.582Z,1004.88
2019-01-15T10:09:26.599Z,1004.87
2019-01-15T10:10:26.584Z,1004.85
2019-01-15T10:11:26.542Z,1004.84
2019-01-15T10:12:26.533Z,1004.85
2019-01-15T10:13:26.541Z,1004.91
2019-01-15T10:14:26.573Z,1004.84
2019-01-15T10:15:26.514Z,1004.88
2019-01-15T10:16:26.549Z,1004.92
2019-01-15T10:17:26.499Z,1004.92
2019-01-15T10:18:26.534Z,1004.91
2019-01-15T10:19:26.468Z,1004.93
2019-01-15T10:20:26.469Z,1004.92
2019-01-15T10:21:26.458Z,1004.89
2019-01-15T10:22:26.442Z,1004.84
2019-01-15T10:23:26.452Z,1004.89
2019-01-15T10:24:26.421Z,1004.86
2019-01-15T10:25:26.420Z,1004.79
2019-01-15T10:26:26.392Z,1004.76
2019-01-15T10:27:26.383Z,1004.83
2019-01-15T10:28:26.392Z,1004.78
2019-01-15T10:29:26.396Z,1004.75
2019-01-15T10:30:26.359Z,1004.72
2019-01-15T10:31:26.347Z,1004.72
2019-01-15T10:32:26.386Z,1004.68
2019-01-15T10:33:26.331Z,1004.70
2019-01-15T10:34:26.316Z,1004.66
2019-01-15T10:35:26.342Z,1004.71
2019-01-15T10:36:26.514Z,1004.60
2019-01-15T10:37:26.292Z,1004.64
2019-01-15T10:38:26.266Z,1004.62
2019-01-15T10:39:26.280Z,1004.62
2019-01-15T10:40:26.250Z,1004.67
2019-01-15T10:41:26.279Z,1004.66
2019-01-15T10:42:26.251Z,1004.62
2019-01-15T10:43:26.218Z,1004.61
2019-01-15T10:44:26.215Z,1004.61
2019-01-15T10:45:26.218Z,1004.61
2019-01-15T10:46:26.203Z,1004.60
2019-01-15T10:47:26.175Z,1004.57
2019-01-15T10:48:26.180Z,1004.63
2019-01-15T10:49:26.231Z,1004.65
2019-01-15T10:50:26.154Z,1004.66
2019-01-15T10:51:26.151Z,1004.63
2019-01-15T10:52:26.903Z,1004.53
2019-01-15T10:53:26.121Z,1004.61
2019-01-15T10:54:26.095Z,1004.56
2019-01-15T10:55:26.087Z,1004.56
2019-01-15T10:56:26.077Z,1004.55
2019-01-15T10:57:26.082Z,1004.60
2019-01-15T10:58:26.073Z,1004.50
2019-01-15T10:59:26.063Z,1004.47
2019-01-15T11:00:26.051Z,1004.48
2019-01-15T11:01:26.095Z,1004.51
2019-01-15T11:02:26.052Z,1004.50
2019-01-15T11:03:26.017Z,1004.45
2019-01-15T11:04:26.039Z,1004.48
2019-01-15T11:05:25.978Z,1004.48
2019-01-15T11:06:25.980Z,1004.53
2019-01-15T11:07:25.985Z,1004.44
2019-01-15T11:08:25.956Z,1004.47
2019-01-15T11:09:25.947Z,1004.46
2019-01-15T11:10:26.504Z,1004.48
2019-01-15T11:11:26.002Z,1004.51
2019-01-15T11:12:25.931Z,1004.52
2019-01-15T11:13:25.909Z,1004.44
2019-01-15T11:14:25.908Z,1004.39
2019-01-15T11:15:25.882Z,1004.47
2019-01-15T11:16:25.873Z,1004.39
2019-01-15T11:17:25.858Z,1004.45
2019-01-15T11:18:25.857Z,1004.44
2019-01-15T11:19:25.852Z,1004.46
2019-01-15T11:20:25.844Z,1004.41
2019-01-15T11:21:25.837Z,1004.39
2019-01-15T11:22:25.799Z,1004.53
2019-01-15T11:23:25.800Z,1004.49
2019-01-15T11:24:25.799Z,1004.42
2019-01-15T11:25:25.985Z,1004.43
2019-01-15T11:26:25.836Z,1004.35
2019-01-15T11:27:25.775Z,1004.38
2019-01-15T11:28:25.748Z,1004.38
2019-01-15T11:29:25.741Z,1004.37
2019-01-15T11:30:25.725Z,1004.33
2019-01-15T11:31:25.729Z,1004.28
2019-01-15T11:32:25.707Z,1004.33
2019-01-15T11:33:25.698Z,1004.32
2019-01-15T11:34:25.678Z,1004.36
2019-01-15T11:35:25.732Z,1004.32
2019-01-15T11:36:25.675Z,1004.35
2019-01-15T11:37:25.675Z,1004.40
2019-01-15T11:38:25.655Z,1004.40
2019-01-15T11:39:25.627Z,1004.37
2019-01-15T11:40:25.671Z,1004.32
2019-01-15T11:41:25.638Z,1004.28
2019-01-15T11:42:25.609Z,1004.31
2019-01-15T11:43:25.626Z,1004.28
2019-01-15T11:44:25.591Z,1004.24
2019-01-15T11:45:25.570Z,1004.22
2019-01-15T11:46:25.549Z,1004.21
2019-01-15T11:47:25.544Z,1004.22
2019-01-15T11:48:25.542Z,1004.22
2019-01-15T11:49:25.563Z,1004.17
2019-01-15T11:50:25.510Z,1004.17
2019-01-15T11:51:25.503Z,1004.13
2019-01-15T11:52:25.500Z,1004.07
2019-01-15T11:53:25.483Z,1004.13
2019-01-15T11:54:25.471Z,1004.08
2019-01-15T11:55:25.590Z,1004.11
2019-01-15T11:56:25.453Z,1004.07
2019-01-15T11:57:25.441Z,1004.07
2019-01-15T11:58:25.437Z,1004.06
2019-01-15T11:59:25.420Z,1004.07
2019-01-15T12:00:25.419Z,1004.03
2019-01-15T12:01:25.412Z,1004.04
2019-01-15T12:02:25.386Z,1003.93
2019-01-15T12:03:25.394Z,1003.99
2019-01-15T12:04:25.370Z,1004.09
2019-01-15T12:05:25.369Z,1003.93